createdAt,value
2019-05-18T00:00:11.873Z,13.60
2019-05-18T00:02:41.913Z,18.00
2019-05-18T00:05:11.719Z,12.80
2019-05-18T00:07:41.484Z,16.00
2019-05-18T00:10:11.284Z,13.80
2019-05-18T00:12:41.752Z,10.40
2019-05-18T00:15:14.038Z,19.40
2019-05-18T00:17:43.866Z,18.00
2019-05-18T00:20:13.705Z,12.00
2019-05-18T00:22:43.370Z,15.00
2019-05-18T00:25:12.997Z,15.40
2019-05-18T00:27:42.852Z,12.40
2019-05-18T00:30:12.739Z,11.80
2019-05-18T00:32:42.663Z,12.20
2019-05-18T00:35:12.910Z,12.20
2019-05-18T00:37:42.819Z,10.80
2019-05-18T00:40:13.779Z,12.00
2019-05-18T00:42:44.049Z,14.60
2019-05-18T00:45:13.854Z,17.80
2019-05-18T00:47:43.509Z,14.20
2019-05-18T00:50:13.431Z,14.00
2019-05-18T00:52:43.209Z,12.00
2019-05-18T00:55:14.957Z,13.40
2019-05-18T00:57:45.010Z,16.60
2019-05-18T01:00:14.983Z,16.40
2019-05-18T01:02:45.051Z,15.20
2019-05-18T01:05:15.462Z,17.40
2019-05-18T01:07:45.294Z,17.80
2019-05-18T01:10:15.612Z,12.60
2019-05-18T01:12:45.441Z,15.40
2019-05-18T01:15:15.296Z,15.60
2019-05-18T01:17:56.826Z,11.40
2019-05-18T01:20:17.112Z,15.60
2019-05-18T01:22:47.223Z,15.80
2019-05-18T01:25:17.095Z,13.00
2019-05-18T01:27:47.138Z,15.80
2019-05-18T01:30:16.859Z,15.60
2019-05-18T01:32:47.716Z,18.20
2019-05-18T01:35:17.905Z,17.20
2019-05-18T01:37:48.101Z,13.00
2019-05-18T01:40:18.352Z,18.20
2019-05-18T01:42:48.396Z,13.40
2019-05-18T01:45:18.180Z,17.20
2019-05-18T01:47:48.503Z,16.40
2019-05-18T01:50:18.323Z,15.40
2019-05-18T01:52:48.046Z,21.80
2019-05-18T01:55:17.673Z,18.80
2019-05-18T01:57:48.662Z,18.80
2019-05-18T02:00:19.248Z,13.00
2019-05-18T02:02:49.115Z,13.60
2019-05-18T02:05:18.901Z,17.60
2019-05-18T02:07:48.802Z,17.60
2019-05-18T02:10:18.614Z,12.60
2019-05-18T02:12:48.546Z,15.80
2019-05-18T02:15:18.751Z,15.80
2019-05-18T02:17:48.682Z,13.00
2019-05-18T02:20:20.279Z,15.40
2019-05-18T02:22:50.153Z,15.80
2019-05-18T02:25:19.788Z,13.40
2019-05-18T02:27:49.925Z,13.00
2019-05-18T02:30:19.688Z,15.00
2019-05-18T02:32:49.448Z,17.20
2019-05-18T02:35:19.392Z,13.80
2019-05-18T02:37:49.119Z,13.00
2019-05-18T02:40:19.030Z,13.00
2019-05-18T02:42:49.003Z,15.40
2019-05-18T02:45:18.885Z,19.40
2019-05-18T02:47:50.311Z,16.00
2019-05-18T02:50:20.080Z,12.60
2019-05-18T02:52:50.187Z,13.00
2019-05-18T02:55:19.916Z,19.40
2019-05-18T02:58:02.294Z,15.20
2019-05-18T03:00:32.166Z,14.60
2019-05-18T03:03:02.039Z,18.60
2019-05-18T03:05:31.942Z,15.60
2019-05-18T03:08:02.192Z,14.80
2019-05-18T03:10:32.071Z,13.40
2019-05-18T03:13:02.160Z,15.60
2019-05-18T03:15:31.945Z,20.60
2019-05-18T03:18:01.773Z,16.60
2019-05-18T03:20:32.150Z,12.80
2019-05-18T03:23:02.036Z,15.40
2019-05-18T03:25:31.616Z,9.60
2019-05-18T03:28:02.069Z,12.40
2019-05-18T03:30:31.794Z,11.20
2019-05-18T03:33:01.532Z,11.20
2019-05-18T03:35:31.578Z,13.40
2019-05-18T03:38:01.226Z,8.80
2019-05-18T03:40:30.978Z,11.60
2019-05-18T03:43:01.274Z,13.80
2019-05-18T03:45:31.419Z,11.20
2019-05-18T03:48:01.502Z,12.60
2019-05-18T03:50:31.260Z,10.00
2019-05-18T03:53:00.937Z,11.00
2019-05-18T03:55:31.603Z,13.40
2019-05-18T03:58:01.976Z,9.80
2019-05-18T04:00:32.018Z,12.40
2019-05-18T04:03:01.837Z,11.40
2019-05-18T04:05:32.136Z,13.80
2019-05-18T04:08:01.955Z,12.80
2019-05-18T04:10:31.637Z,10.80
2019-05-18T04:13:01.321Z,12.60
2019-05-18T04:15:31.135Z,10.20
2019-05-18T04:18:01.048Z,9.00
2019-05-18T04:20:30.683Z,11.20
2019-05-18T04:23:01.012Z,13.40
2019-05-18T04:25:31.391Z,10.80
2019-05-18T04:28:01.253Z,9.00
2019-05-18T04:30:31.221Z,9.00
2019-05-18T04:33:01.035Z,14.20
2019-05-18T04:35:30.704Z,12.60
2019-05-18T04:38:00.484Z,9.40
2019-05-18T04:40:30.371Z,5.60
2019-05-18T04:43:00.268Z,11.80
2019-05-18T04:45:30.409Z,12.60
2019-05-18T04:48:01.088Z,18.00
2019-05-18T04:50:30.980Z,9.00
2019-05-18T04:53:00.705Z,9.60
2019-05-18T04:55:30.873Z,10.60
2019-05-18T04:58:00.605Z,16.00
2019-05-18T05:00:31.734Z,10.00
2019-05-18T05:03:01.818Z,12.00
2019-05-18T05:05:31.612Z,9.20
2019-05-18T05:08:01.379Z,9.40
2019-05-18T05:10:32.595Z,11.20
2019-05-18T05:13:02.211Z,9.60
2019-05-18T05:15:32.690Z,11.40
2019-05-18T05:18:02.520Z,15.20
2019-05-18T05:20:32.398Z,10.00
2019-05-18T05:23:02.666Z,12.20
2019-05-18T05:25:32.831Z,12.40
2019-05-18T05:28:02.759Z,17.60
2019-05-18T05:30:33.123Z,15.40
2019-05-18T05:33:04.401Z,12.60
2019-05-18T05:35:37.487Z,9.60
2019-05-18T05:38:06.465Z,12.60
2019-05-18T05:40:37.128Z,13.80
2019-05-18T05:43:07.027Z,9.20
2019-05-18T05:45:36.817Z,11.00
2019-05-18T05:48:06.660Z,9.80
2019-05-18T05:50:36.960Z,12.00
2019-05-18T05:53:06.723Z,10.00
2019-05-18T05:55:36.280Z,10.40
2019-05-18T05:58:06.687Z,10.20
2019-05-18T06:00:36.430Z,10.80
2019-05-18T06:03:06.087Z,14.00
2019-05-18T06:05:36.046Z,13.80
2019-05-18T06:08:06.244Z,12.80
2019-05-18T06:10:36.206Z,10.00
2019-05-18T06:13:07.577Z,12.40
2019-05-18T06:15:41.592Z,11.80
2019-05-18T06:18:11.493Z,12.40
2019-05-18T06:20:51.000Z,10.40
2019-05-18T06:23:13.140Z,8.00
2019-05-18T06:25:42.766Z,9.00
2019-05-18T06:28:12.513Z,10.00
2019-05-18T06:30:42.647Z,14.40
2019-05-18T06:33:12.423Z,15.20
2019-05-18T06:35:42.175Z,20.00
2019-05-18T06:38:11.738Z,11.20
2019-05-18T06:40:41.659Z,16.80
2019-05-18T06:43:11.300Z,15.60
2019-05-18T06:45:41.676Z,10.40
2019-05-18T06:48:13.863Z,12.80
2019-05-18T06:50:43.601Z,12.80
2019-05-18T06:53:13.354Z,13.80
2019-05-18T06:55:43.193Z,12.60
2019-05-18T06:58:13.505Z,12.20
2019-05-18T07:00:43.363Z,9.00
2019-05-18T07:03:13.070Z,12.60
2019-05-18T07:05:43.218Z,9.00
2019-05-18T07:08:13.088Z,11.60
2019-05-18T07:10:42.604Z,16.40
2019-05-18T07:13:12.326Z,10.00
2019-05-18T07:15:43.851Z,10.00
2019-05-18T07:18:13.574Z,8.60
2019-05-18T07:20:43.248Z,9.00
2019-05-18T07:23:13.076Z,9.00
2019-05-18T07:25:44.440Z,7.40
2019-05-18T07:28:14.075Z,9.20
2019-05-18T07:30:43.663Z,12.00
2019-05-18T07:33:13.263Z,10.40
2019-05-18T07:35:42.921Z,7.20
2019-05-18T07:38:13.102Z,9.80
2019-05-18T07:40:46.680Z,14.20
2019-05-18T07:43:16.228Z,13.40
2019-05-18T07:45:45.732Z,11.20
2019-05-18T07:48:15.569Z,12.00
2019-05-18T07:50:45.315Z,14.00
2019-05-18T07:53:15.427Z,11.20
2019-05-18T07:55:46.155Z,29.60
2019-05-18T07:58:15.823Z,12.20
2019-05-18T08:00:45.395Z,15.00
2019-05-18T08:03:15.273Z,12.00
2019-05-18T08:05:44.837Z,9.40
2019-05-18T08:08:14.395Z,10.00
2019-05-18T08:10:44.484Z,6.40
2019-05-18T08:13:14.273Z,12.20
2019-05-18T08:15:44.323Z,12.80
2019-05-18T08:18:14.481Z,9.40
2019-05-18T08:20:44.142Z,12.60
2019-05-18T08:23:13.927Z,11.40
2019-05-18T08:25:44.590Z,41.60
2019-05-18T08:28:14.622Z,13.80
2019-05-18T08:30:47.410Z,14.00
2019-05-18T08:33:17.238Z,13.40
2019-05-18T08:35:46.785Z,12.40
2019-05-18T08:38:16.521Z,15.20
2019-05-18T08:40:46.387Z,17.40
2019-05-18T08:43:19.298Z,14.80
2019-05-18T08:45:48.770Z,9.80
2019-05-18T08:48:18.811Z,19.60
2019-05-18T08:50:48.800Z,12.80
2019-05-18T08:53:19.034Z,15.00
2019-05-18T08:55:49.626Z,11.00
2019-05-18T08:58:19.370Z,13.40
2019-05-18T09:00:49.189Z,13.60
2019-05-18T09:03:22.086Z,8.00
2019-05-18T09:05:51.817Z,8.00
2019-05-18T09:08:21.434Z,15.40
2019-05-18T09:10:51.177Z,11.80
2019-05-18T09:13:20.683Z,13.60
2019-05-18T09:15:50.296Z,17.20
2019-05-18T09:18:19.983Z,15.00
2019-05-18T09:20:50.384Z,11.40
2019-05-18T09:23:22.132Z,14.20
2019-05-18T09:25:51.697Z,13.80
2019-05-18T09:28:21.186Z,15.60
2019-05-18T09:30:50.940Z,23.80
2019-05-18T09:33:20.711Z,10.20
2019-05-18T09:35:50.218Z,14.00
2019-05-18T09:38:19.826Z,11.00
2019-05-18T09:40:49.404Z,14.40
2019-05-18T09:43:19.666Z,13.20
2019-05-18T09:45:49.261Z,14.00
2019-05-18T09:48:18.867Z,11.00
2019-05-18T09:50:48.700Z,11.80
2019-05-18T09:53:18.989Z,13.20
2019-05-18T09:55:49.654Z,13.00
2019-05-18T09:58:20.663Z,13.20
2019-05-18T10:00:50.695Z,12.00
2019-05-18T10:03:21.316Z,14.20
2019-05-18T10:05:51.478Z,10.60
2019-05-18T10:08:24.740Z,11.80
2019-05-18T10:10:54.397Z,11.20
2019-05-18T10:13:24.267Z,12.60
2019-05-18T10:15:54.289Z,13.80
2019-05-18T10:18:24.051Z,13.00
2019-05-18T10:20:54.116Z,13.60
2019-05-18T10:23:23.825Z,13.20
2019-05-18T10:25:53.570Z,20.00
2019-05-18T10:28:23.322Z,14.20
2019-05-18T10:30:56.227Z,16.00
2019-05-18T10:33:26.173Z,16.00
2019-05-18T10:35:55.734Z,17.40
2019-05-18T10:38:25.349Z,13.80
2019-05-18T10:43:32.152Z,19.20
2019-05-18T10:46:02.164Z,19.80
2019-05-18T10:48:32.138Z,16.40
2019-05-18T10:51:05.603Z,18.60
2019-05-18T10:53:33.337Z,18.40
2019-05-18T10:56:03.238Z,14.80
2019-05-18T10:58:33.062Z,15.00
2019-05-18T11:01:02.775Z,17.60
2019-05-18T11:03:34.322Z,13.00
2019-05-18T11:06:04.278Z,17.20
2019-05-18T11:08:34.524Z,17.80
2019-05-18T11:11:04.278Z,17.00
2019-05-18T11:13:35.145Z,13.80
2019-05-18T11:16:05.190Z,12.60
2019-05-18T11:18:34.710Z,17.60
2019-05-18T11:21:05.108Z,15.00
2019-05-18T11:23:43.291Z,18.20
2019-05-18T11:26:09.797Z,15.60
2019-05-18T11:28:39.477Z,17.00
2019-05-18T11:31:09.220Z,14.80
2019-05-18T11:33:38.783Z,15.80
2019-05-18T11:36:08.915Z,17.20
2019-05-18T11:38:39.235Z,17.00
2019-05-18T11:41:08.795Z,13.80
2019-05-18T11:43:38.422Z,15.20
2019-05-18T11:46:08.397Z,14.60
2019-05-18T11:48:37.942Z,16.80
2019-05-18T11:51:07.910Z,14.40
2019-05-18T11:53:37.760Z,16.40
2019-05-18T11:56:08.031Z,17.00
2019-05-18T11:58:37.907Z,18.20
2019-05-18T12:01:09.274Z,13.40
2019-05-18T12:03:39.676Z,14.20
2019-05-18T12:06:12.708Z,17.60
2019-05-18T12:08:42.322Z,16.80
2019-05-18T12:11:12.760Z,14.40
2019-05-18T12:13:42.314Z,17.60
2019-05-18T12:16:12.071Z,15.00
2019-05-18T12:18:47.480Z,16.60
2019-05-18T12:21:16.936Z,14.20
2019-05-18T12:23:46.542Z,19.00
2019-05-18T12:26:19.143Z,17.60
2019-05-18T12:28:49.035Z,16.00
2019-05-18T12:31:19.522Z,12.00
2019-05-18T12:33:49.231Z,15.20
2019-05-18T12:36:23.734Z,16.60
2019-05-18T12:38:57.003Z,15.20
2019-05-18T12:41:31.418Z,15.40
2019-05-18T12:44:34.378Z,14.40
2019-05-18T12:47:02.660Z,17.80
2019-05-18T12:49:32.486Z,10.20
2019-05-18T12:52:02.592Z,13.20
2019-05-18T12:54:46.146Z,15.80
2019-05-18T12:57:07.236Z,17.40
2019-05-18T12:59:37.001Z,16.40
2019-05-18T13:02:09.912Z,14.00
2019-05-18T13:04:41.894Z,11.80
2019-05-18T13:07:12.137Z,15.60
2019-05-18T13:09:43.632Z,14.00
2019-05-18T13:12:16.293Z,16.20
2019-05-18T13:14:46.138Z,14.00
2019-05-18T13:17:16.063Z,13.60
2019-05-18T13:19:49.212Z,14.00
2019-05-18T13:22:19.772Z,15.60
2019-05-18T13:24:52.125Z,19.60
2019-05-18T13:27:37.966Z,21.20
2019-05-18T13:29:54.694Z,22.00
2019-05-18T13:32:27.406Z,17.00
2019-05-18T13:34:58.104Z,12.60
2019-05-18T13:37:32.548Z,10.20
2019-05-18T13:40:06.753Z,8.20
2019-05-18T13:42:37.777Z,11.60
2019-05-18T13:45:07.827Z,10.00
2019-05-18T13:47:40.111Z,16.60
2019-05-18T13:50:10.154Z,8.20
2019-05-18T13:52:40.463Z,8.60
2019-05-18T13:55:10.302Z,9.40
2019-05-18T13:57:39.940Z,11.40
2019-05-18T14:00:09.800Z,9.00
2019-05-18T14:02:39.325Z,9.40
2019-05-18T14:05:09.300Z,11.20
2019-05-18T14:07:38.898Z,12.80
2019-05-18T14:10:12.266Z,12.00
2019-05-18T14:12:40.811Z,10.20
2019-05-18T14:15:11.932Z,12.60
2019-05-18T14:17:41.550Z,15.00
2019-05-18T14:20:11.191Z,15.80
2019-05-18T14:22:40.712Z,16.20
2019-05-18T14:25:19.283Z,16.00
2019-05-18T14:27:42.019Z,18.20
2019-05-18T14:30:11.699Z,16.00
2019-05-18T14:32:42.804Z,16.00
2019-05-18T14:35:12.634Z,18.20
2019-05-18T14:37:42.761Z,11.00
2019-05-18T14:40:14.633Z,17.00
2019-05-18T14:42:44.269Z,19.00
2019-05-18T14:45:13.932Z,19.60
2019-05-18T14:47:43.413Z,17.00
2019-05-18T14:50:13.232Z,15.40
2019-05-18T14:52:43.142Z,15.20
2019-05-18T14:55:16.128Z,18.60
2019-05-18T14:57:48.047Z,15.20
2019-05-18T15:00:17.860Z,20.80
2019-05-18T15:02:47.753Z,15.20
2019-05-18T15:05:17.371Z,14.20
2019-05-18T15:07:58.699Z,19.20
2019-05-18T15:10:33.687Z,13.00
2019-05-18T15:13:05.127Z,17.40
2019-05-18T15:15:39.923Z,15.80
2019-05-18T15:18:09.562Z,15.80
2019-05-18T15:20:45.411Z,16.20
2019-05-18T15:23:15.700Z,22.40
2019-05-18T15:25:50.860Z,13.60
2019-05-18T15:28:16.581Z,21.00
2019-05-18T15:30:46.214Z,16.00
2019-05-18T15:33:15.909Z,13.60
2019-05-18T15:35:45.877Z,17.20
2019-05-18T15:38:18.700Z,20.40
2019-05-18T15:40:48.188Z,16.00
2019-05-18T15:43:18.056Z,19.20
2019-05-18T15:45:47.894Z,13.00
2019-05-18T15:48:17.567Z,16.20
2019-05-18T15:50:50.247Z,16.00
2019-05-18T15:53:19.940Z,17.00
2019-05-18T15:56:04.455Z,18.80
2019-05-18T15:58:21.624Z,17.60
2019-05-18T16:00:54.351Z,20.20
2019-05-18T16:03:23.915Z,16.00
2019-05-18T16:05:54.293Z,10.40
2019-05-18T16:08:26.366Z,16.40
2019-05-18T16:10:57.260Z,10.80
2019-05-18T16:13:27.473Z,6.60
2019-05-18T16:15:57.456Z,6.80
2019-05-18T16:18:27.254Z,8.40
2019-05-18T16:20:56.987Z,9.40
2019-05-18T16:23:26.490Z,9.00
2019-05-18T16:25:56.666Z,6.00
2019-05-18T16:28:26.209Z,7.00
2019-05-18T16:30:56.081Z,9.00
2019-05-18T16:33:26.026Z,7.60
2019-05-18T16:35:59.055Z,8.00
2019-05-18T16:38:28.818Z,4.60
2019-05-18T16:41:03.364Z,8.80
2019-05-18T16:43:32.763Z,8.00
2019-05-18T16:46:02.658Z,6.40
2019-05-18T16:48:39.380Z,7.20
2019-05-18T16:51:08.804Z,8.20
2019-05-18T16:53:38.948Z,4.60
2019-05-18T16:56:08.863Z,5.80
2019-05-18T16:58:38.952Z,5.00
2019-05-18T17:01:12.282Z,4.60
2019-05-18T17:03:44.833Z,8.80
2019-05-18T17:06:16.405Z,7.80
2019-05-18T17:08:45.922Z,6.20
2019-05-18T17:11:15.432Z,6.00
2019-05-18T17:13:45.513Z,6.80
2019-05-18T17:16:16.891Z,5.40
2019-05-18T17:18:49.280Z,6.60
2019-05-18T17:21:19.052Z,7.00
2019-05-18T17:23:48.782Z,4.60
2019-05-18T17:26:18.364Z,6.60
2019-05-18T17:28:48.190Z,4.20
2019-05-18T17:31:17.746Z,6.40
2019-05-18T17:33:47.260Z,5.00
2019-05-18T17:36:19.638Z,5.00
2019-05-18T17:38:49.295Z,8.00
2019-05-18T17:41:19.256Z,6.40
2019-05-18T17:43:51.321Z,7.00
2019-05-18T17:46:24.265Z,5.00
2019-05-18T17:48:54.368Z,7.00
2019-05-18T17:51:24.752Z,8.20
2019-05-18T17:53:54.704Z,7.00
2019-05-18T17:56:24.370Z,6.60
2019-05-18T17:58:54.004Z,8.40
2019-05-18T18:01:23.510Z,7.40
2019-05-18T18:03:54.099Z,5.40
2019-05-18T18:06:25.384Z,5.00
2019-05-18T18:08:55.139Z,4.20
2019-05-18T18:11:26.731Z,7.00
2019-05-18T18:13:56.496Z,7.40
2019-05-18T18:16:27.150Z,5.00
2019-05-18T18:18:57.004Z,6.60
2019-05-18T18:21:28.791Z,7.60
2019-05-18T18:23:58.250Z,7.80
2019-05-18T18:26:29.906Z,6.60
2019-05-18T18:29:04.218Z,8.00
2019-05-18T18:31:34.283Z,5.00
2019-05-18T18:34:07.503Z,7.00
2019-05-18T18:36:40.176Z,1.60
2019-05-18T18:39:13.162Z,6.60
2019-05-18T18:41:43.302Z,5.00
2019-05-18T18:44:16.074Z,6.60
2019-05-18T18:46:46.256Z,8.20
2019-05-18T18:49:16.414Z,7.00
2019-05-18T18:51:46.445Z,6.60
2019-05-18T18:54:19.294Z,4.20
2019-05-18T18:56:48.874Z,7.00
2019-05-18T18:59:19.094Z,5.80
2019-05-18T19:01:48.798Z,8.80
2019-05-18T19:04:18.431Z,7.60
2019-05-18T19:06:48.028Z,7.60
2019-05-18T19:09:21.061Z,7.40
2019-05-18T19:11:51.148Z,9.60
2019-05-18T19:14:25.747Z,7.40
2019-05-18T19:16:55.466Z,9.00
2019-05-18T19:19:30.250Z,9.80
2019-05-18T19:22:00.006Z,13.00
2019-05-18T19:24:32.162Z,12.00
2019-05-18T19:27:02.099Z,10.20
2019-05-18T19:29:32.473Z,10.00
2019-05-18T19:32:04.257Z,7.00
2019-05-18T19:34:34.222Z,10.80
2019-05-18T19:37:04.231Z,9.00
2019-05-18T19:39:34.146Z,7.40
2019-05-18T19:42:03.690Z,10.20
2019-05-18T19:44:36.198Z,12.00
2019-05-18T19:47:06.011Z,10.00
2019-05-18T19:49:36.034Z,13.60
2019-05-18T19:52:05.650Z,14.80
2019-05-18T19:54:36.166Z,8.00
2019-05-18T19:57:06.535Z,13.00
2019-05-18T19:59:36.097Z,10.60
2019-05-18T20:02:05.996Z,12.40
2019-05-18T20:04:35.735Z,14.00
2019-05-18T20:07:05.379Z,13.00
2019-05-18T20:09:35.384Z,12.40
2019-05-18T20:12:05.314Z,14.80
2019-05-18T20:14:34.765Z,14.20
2019-05-18T20:17:04.467Z,17.40
2019-05-18T20:19:39.144Z,15.20
2019-05-18T20:22:06.413Z,18.80
2019-05-18T20:24:36.749Z,18.00
2019-05-18T20:27:06.823Z,17.40
2019-05-18T20:29:36.453Z,18.60
2019-05-18T20:32:06.361Z,20.60
2019-05-18T20:34:36.652Z,19.80
2019-05-18T20:37:06.249Z,18.00
2019-05-18T20:39:36.251Z,16.40
2019-05-18T20:42:06.597Z,19.80
2019-05-18T20:44:39.808Z,11.60
2019-05-18T20:47:09.420Z,17.00
2019-05-18T20:49:39.357Z,19.00
2019-05-18T20:52:09.273Z,21.20
2019-05-18T20:54:40.445Z,29.80
2019-05-18T20:57:10.470Z,28.40
2019-05-18T20:59:40.365Z,27.40
2019-05-18T21:02:24.680Z,32.60
2019-05-18T21:04:54.353Z,35.80
2019-05-18T21:07:26.114Z,25.00
2019-05-18T21:09:56.307Z,22.00
2019-05-18T21:12:28.952Z,28.40
2019-05-18T21:15:00.441Z,32.00
2019-05-18T21:17:33.373Z,27.00
2019-05-18T21:20:03.459Z,25.80
2019-05-18T21:22:33.762Z,35.60
2019-05-18T21:25:03.690Z,35.80
2019-05-18T21:27:33.732Z,29.60
2019-05-18T21:30:04.037Z,33.60
2019-05-18T21:32:34.018Z,35.60
2019-05-18T21:35:06.151Z,30.60
2019-05-18T21:37:35.971Z,35.20
2019-05-18T21:40:06.835Z,36.20
2019-05-18T21:42:36.744Z,34.00
2019-05-18T21:45:07.259Z,31.40
2019-05-18T21:47:36.950Z,33.60
2019-05-18T21:50:07.746Z,29.80
2019-05-18T21:52:37.865Z,25.00
2019-05-18T21:55:07.981Z,26.00
2019-05-18T21:57:37.767Z,23.40
2019-05-18T22:00:08.138Z,25.60
2019-05-18T22:02:37.957Z,27.20
2019-05-18T22:05:11.724Z,27.60
2019-05-18T22:07:41.552Z,31.20
2019-05-18T22:10:24.951Z,22.80
2019-05-18T22:12:43.464Z,30.60
2019-05-18T22:15:13.109Z,23.80
2019-05-18T22:18:00.516Z,27.80
2019-05-18T22:20:30.198Z,27.80
2019-05-18T22:23:01.269Z,24.60
2019-05-18T22:25:31.541Z,24.00
2019-05-18T22:28:01.474Z,30.00
2019-05-18T22:30:31.335Z,25.60
2019-05-18T22:33:01.404Z,27.80
2019-05-18T22:35:33.335Z,30.20
2019-05-18T22:38:03.181Z,31.20
2019-05-18T22:40:35.934Z,26.00
2019-05-18T22:43:07.424Z,22.60
2019-05-18T22:45:37.303Z,34.80
2019-05-18T22:48:07.093Z,33.20
2019-05-18T22:50:38.101Z,31.00
2019-05-18T22:53:07.857Z,27.60
2019-05-18T22:55:38.369Z,27.60
2019-05-18T22:58:08.051Z,29.40
2019-05-18T23:00:38.264Z,34.60
2019-05-18T23:03:08.073Z,33.60
2019-05-18T23:05:39.021Z,32.20
2019-05-18T23:08:08.580Z,33.40
2019-05-18T23:10:38.186Z,33.60
2019-05-18T23:13:08.090Z,43.00
2019-05-18T23:15:38.221Z,30.40
2019-05-18T23:18:08.102Z,37.20
2019-05-18T23:20:37.893Z,44.80
2019-05-18T23:23:07.711Z,33.60
2019-05-18T23:25:37.937Z,34.20
2019-05-18T23:28:08.140Z,38.40
2019-05-18T23:30:38.377Z,32.40
2019-05-18T23:33:08.100Z,40.60
2019-05-18T23:35:38.507Z,45.80
2019-05-18T23:38:08.408Z,38.80
2019-05-18T23:40:38.902Z,41.60
2019-05-18T23:43:08.826Z,42.20
2019-05-18T23:45:38.519Z,39.00
2019-05-18T23:48:08.667Z,41.80
2019-05-18T23:50:38.539Z,36.20
2019-05-18T23:53:08.764Z,38.60
2019-05-18T23:55:38.673Z,34.20
2019-05-18T23:58:08.443Z,39.60
